Time;durP1;ratioP1;P1;durP2;ratioP2;P2;SDS_P1;SDS_P2;PMS_P1;PMS_P2;Temp;Humidity;BMP_temperature;BMP_pressure;BME280_temperature;BME280_humidity;BME280_pressure;Samples;Min_cycle;Max_cycle;Signal;HPM_P1;HPM_P2
2021/05/29 00:00:59;;;;;;;3.57;3.00;;;;;;;;;;5054545;28;21098;-71
2021/05/29 00:03:28;;;;;;;6.43;3.53;;;;;;;;;;5054777;28;20423;-74
2021/05/29 00:06:21;;;;;;;5.97;2.93;;;9.30;1.00;;;;;;5051975;28;20789;-74
2021/05/29 00:08:47;;;;;;;3.67;3.33;;;9.30;1.00;;;;;;5054604;28;20402;-74
2021/05/29 00:11:22;;;;;;;6.70;3.17;;;9.20;1.00;;;;;;5053886;28;20417;-74
2021/05/29 00:13:52;;;;;;;5.37;3.37;;;;;;;;;;5054613;28;20546;-74
2021/05/29 00:16:51;;;;;;;4.27;2.90;;;9.20;1.00;;;;;;5052578;28;20497;-74
2021/05/29 00:19:18;;;;;;;6.00;3.57;;;9.20;1.00;;;;;;5053352;28;20900;-74
2021/05/29 00:21:43;;;;;;;3.77;3.10;;;9.20;1.00;;;;;;5034657;28;20395;-74
2021/05/29 00:24:22;;;;;;;7.63;2.97;;;9.20;1.00;;;;;;5034327;28;20742;-74
2021/05/29 00:26:52;;;;;;;8.03;2.67;;;;;;;;;;5050480;28;20218;-74
2021/05/29 00:29:22;;;;;;;3.40;2.80;;;9.10;1.00;;;;;;5054073;28;20468;-74
2021/05/29 00:31:52;;;;;;;3.70;3.00;;;;;;;;;;5053629;28;20932;-74
2021/05/29 00:34:22;;;;;;;4.00;3.00;;;;;;;;;;5054187;28;20896;-74
2021/05/29 00:36:52;;;;;;;4.97;3.43;;;9.10;1.00;;;;;;5043238;28;20411;-74
2021/05/29 00:39:22;;;;;;;4.23;3.37;;;9.10;1.00;;;;;;5034122;28;20445;-74
2021/05/29 00:42:22;;;;;;;4.03;3.10;;;9.00;1.00;;;;;;5034551;28;20544;-74
2021/05/29 00:44:58;;;;;;;24.53;3.60;;;9.10;1.00;;;;;;5034248;28;20403;-74
2021/05/29 00:47:26;;;;;;;9.50;3.30;;;9.00;1.00;;;;;;5034054;28;20418;-74
2021/05/29 00:49:54;;;;;;;12.30;4.00;;;9.00;1.00;;;;;;5034309;28;20443;-71
2021/05/29 00:52:21;;;;;;;4.97;3.20;;;9.00;1.00;;;;;;5033896;28;20396;-71
2021/05/29 00:54:47;;;;;;;6.00;3.27;;;9.00;1.00;;;;;;5033647;28;20415;-71
2021/05/29 00:57:17;;;;;;;4.53;2.70;;;9.00;1.00;;;;;;5043539;28;20415;-71
2021/05/29 00:59:43;;;;;;;5.00;3.20;;;8.90;1.00;;;;;;5053690;28;20482;-71
2021/05/29 01:02:12;;;;;;;5.70;3.10;;;8.90;1.00;;;;;;5042356;28;20418;-71
2021/05/29 01:04:39;;;;;;;6.00;3.20;;;8.90;1.00;;;;;;5033999;28;20438;-71
2021/05/29 01:07:16;;;;;;;4.07;3.30;;;8.90;1.00;;;;;;5037627;28;20495;-71
2021/05/29 01:09:43;;;;;;;4.27;2.77;;;8.90;1.00;;;;;;5053498;28;20457;-74
2021/05/29 01:12:22;;;;;;;5.00;3.80;;;8.90;1.00;;;;;;5038992;28;20415;-74
2021/05/29 01:15:22;;;;;;;3.00;2.73;;;8.80;1.00;;;;;;5033518;28;20506;-74
2021/05/29 01:18:12;;;;;;;12.53;3.30;;;8.80;1.00;;;;;;5049051;28;20414;-74
2021/05/29 01:20:52;;;;;;;10.80;3.00;;;8.80;1.00;;;;;;5037741;28;20853;-74
2021/05/29 01:23:18;;;;;;;4.13;3.17;;;8.80;1.00;;;;;;5037691;28;20461;-74
2021/05/29 01:25:46;;;;;;;3.30;2.67;;;8.80;1.00;;;;;;5038245;28;20415;-74
2021/05/29 01:28:21;;;;;;;5.50;3.40;;;8.80;1.00;;;;;;5038063;28;20165;-74
2021/05/29 01:31:02;;;;;;;11.40;3.17;;;8.80;1.00;;;;;;5037729;28;20544;-74
2021/05/29 01:33:32;;;;;;;5.77;3.63;;;8.80;1.00;;;;;;5037885;28;20581;-72
2021/05/29 01:36:04;;;;;;;4.93;3.73;;;8.80;1.00;;;;;;5037468;28;20399;-72
2021/05/29 01:38:30;;;;;;;8.83;3.50;;;8.80;1.00;;;;;;5039136;28;20902;-72
2021/05/29 01:41:08;;;;;;;5.90;3.20;;;8.80;1.00;;;;;;5057370;28;20460;-72
2021/05/29 01:43:35;;;;;;;5.80;3.57;;;8.80;1.00;;;;;;5057263;28;20406;-71
2021/05/29 01:46:01;;;;;;;4.17;3.17;;;8.80;1.00;;;;;;5057364;28;20402;-72
2021/05/29 01:48:33;;;;;;;4.70;3.60;;;;;;;;;;5055067;28;20409;-71
2021/05/29 01:51:00;;;;;;;3.93;2.97;;;8.80;1.00;;;;;;5057090;28;20194;-71
2021/05/29 01:53:26;;;;;;;3.77;3.37;;;8.80;1.00;;;;;;5057349;28;20417;-71
2021/05/29 01:55:52;;;;;;;4.90;3.20;;;8.80;1.00;;;;;;5057063;28;20398;-72
2021/05/29 01:58:18;;;;;;;3.57;2.67;;;8.70;1.00;;;;;;5057011;28;20160;-72
2021/05/29 02:00:44;;;;;;;3.63;2.90;;;8.70;1.00;;;;;;5054657;28;20436;-72
2021/05/29 02:03:10;;;;;;;4.90;2.97;;;8.70;1.00;;;;;;5055594;28;20815;-71
2021/05/29 02:05:46;;;;;;;4.53;3.20;;;8.70;1.00;;;;;;5040285;28;20525;-74
2021/05/29 02:08:29;;;;;;;3.90;3.23;;;8.60;1.00;;;;;;5036578;28;20259;-74
2021/05/29 02:14:46;;;;;;;3.50;3.20;;;8.50;1.00;;;;;;5037126;28;20434;-74
2021/05/29 02:17:22;;;;;;;8.20;3.40;;;8.50;1.00;;;;;;5037014;28;20417;-74
2021/05/29 02:19:48;;;;;;;4.90;3.30;;;8.50;1.00;;;;;;5036801;28;20930;-74
2021/05/29 02:22:22;;;;;;;4.43;3.43;;;8.50;1.00;;;;;;5054155;28;20512;-74
2021/05/29 02:24:58;;;;;;;4.60;3.53;;;8.40;1.00;;;;;;5053114;28;20920;-74
2021/05/29 02:27:52;;;;;;;9.20;3.47;;;8.40;1.00;;;;;;5056445;28;20398;-74
2021/05/29 02:31:04;;;;;;;5.60;3.20;;;8.30;1.00;;;;;;5055020;28;20441;-74
2021/05/29 02:34:10;;;;;;;5.93;3.63;;;8.30;1.00;;;;;;5036557;28;20399;-74
2021/05/29 02:37:21;;;;;;;8.33;3.60;;;8.20;1.00;;;;;;5036503;28;20423;-74
2021/05/29 02:39:52;;;;;;;6.53;4.00;;;8.20;1.00;;;;;;5036216;28;20400;-74
2021/05/29 02:42:22;;;;;;;6.53;4.00;;;8.10;1.00;;;;;;5038856;28;20411;-74
2021/05/29 02:44:52;;;;;;;5.60;4.13;;;8.10;1.00;;;;;;5036589;28;20410;-74
2021/05/29 02:50:41;;;;;;;7.43;3.30;;;8.10;1.00;;;;;;5036417;28;20472;-74
2021/05/29 02:53:08;;;;;;;6.37;4.20;;;8.10;1.00;;;;;;5035674;28;20433;-74
2021/05/29 02:55:34;;;;;;;8.10;4.73;;;8.10;1.00;;;;;;5036080;28;20392;-74
2021/05/29 02:58:00;;;;;;;9.07;4.40;;;8.00;1.00;;;;;;5035250;28;20421;-74
2021/05/29 03:00:41;;;;;;;6.00;4.77;;;8.00;1.00;;;;;;5035194;28;20395;-74
2021/05/29 03:03:51;;;;;;;6.10;3.60;;;8.00;1.00;;;;;;5043177;28;20938;-74
2021/05/29 03:06:22;;;;;;;8.83;4.13;;;8.00;1.00;;;;;;5056415;28;20434;-74
2021/05/29 03:08:52;;;;;;;5.37;3.80;;;8.10;1.00;;;;;;5055708;28;21004;-75
2021/05/29 03:11:41;;;;;;;6.00;4.50;;;7.90;1.00;;;;;;5054523;28;20984;-74
2021/05/29 03:14:07;;;;;;;6.33;4.07;;;7.90;1.00;;;;;;5054032;28;20414;-74
2021/05/29 03:16:33;;;;;;;9.47;4.50;;;;;;;;;;5055542;28;20391;-74
2021/05/29 03:19:23;;;;;;;5.27;3.77;;;7.90;1.00;;;;;;5054953;28;20411;-74
2021/05/29 03:21:58;;;;;;;6.23;3.70;;;7.90;1.00;;;;;;5055530;28;20406;-72
2021/05/29 03:24:24;;;;;;;6.13;4.40;;;7.90;1.00;;;;;;5053640;28;20467;-72
2021/05/29 03:26:50;;;;;;;5.17;3.97;;;7.80;1.00;;;;;;5055430;28;20394;-72
2021/05/29 03:29:16;;;;;;;8.93;4.00;;;;;;;;;;5055174;28;20192;-71
2021/05/29 03:31:42;;;;;;;4.90;3.60;;;;;;;;;;5053736;28;20418;-72
2021/05/29 03:34:10;;;;;;;8.50;4.50;;;7.80;1.00;;;;;;5054587;28;20873;-72
2021/05/29 03:37:22;;;;;;;11.10;4.60;;;7.80;1.00;;;;;;5054801;28;20525;-74
2021/05/29 03:39:52;;;;;;;5.73;4.20;;;7.80;1.00;;;;;;5054469;28;20444;-74
2021/05/29 03:42:22;;;;;;;11.27;5.03;;;7.70;1.00;;;;;;5055012;28;20749;-73
2021/05/29 03:44:53;;;;;;;7.07;4.27;;;;;;;;;;5054580;28;20398;-76
2021/05/29 03:47:22;;;;;;;6.17;3.87;;;7.70;1.00;;;;;;5066637;28;20434;-74
2021/05/29 03:49:52;;;;;;;5.30;3.80;;;7.60;1.00;;;;;;5035473;28;20447;-71
2021/05/29 03:52:18;;;;;;;8.47;4.60;;;7.60;1.00;;;;;;5034706;28;21009;-72
2021/05/29 03:54:46;;;;;;;4.73;3.90;;;7.60;1.00;;;;;;5034964;28;20487;-71
2021/05/29 03:57:16;;;;;;;7.60;3.80;;;7.60;1.00;;;;;;5047707;28;20184;-72
2021/05/29 03:59:42;;;;;;;18.93;3.67;;;;;;;;;;5044469;28;20774;-72
2021/05/29 04:02:08;;;;;;;8.17;4.30;;;7.60;1.00;;;;;;5034769;28;20867;-71
2021/05/29 04:04:34;;;;;;;5.30;3.77;;;;;;;;;;5034647;28;20434;-72
2021/05/29 04:07:00;;;;;;;5.97;4.00;;;7.50;1.00;;;;;;5040279;28;20615;-72
2021/05/29 04:09:28;;;;;;;7.37;3.83;;;7.50;1.00;;;;;;5053262;28;20457;-71
2021/05/29 04:12:22;;;;;;;6.30;3.60;;;7.50;1.00;;;;;;5032999;28;20868;-74
2021/05/29 04:14:52;;;;;;;8.20;4.00;;;7.50;1.00;;;;;;5034339;28;20863;-74
2021/05/29 04:17:52;;;;;;;17.20;4.10;;;7.50;1.00;;;;;;5036379;28;20171;-74
2021/05/29 04:20:46;;;;;;;9.10;4.27;;;7.60;1.00;;;;;;5054799;28;20741;-74
2021/05/29 04:23:12;;;;;;;9.17;3.83;;;;;;;;;;5053669;28;20477;-74
2021/05/29 04:25:52;;;;;;;4.57;3.73;;;7.60;1.00;;;;;;5034144;28;20395;-74
2021/05/29 04:28:52;;;;;;;6.30;4.50;;;7.60;1.00;;;;;;5034349;28;20391;-74
2021/05/29 04:31:18;;;;;;;5.90;3.93;;;7.70;1.00;;;;;;5034008;28;20475;-72
2021/05/29 04:33:44;;;;;;;7.13;4.90;;;7.70;1.00;;;;;;5034340;28;20387;-72
2021/05/29 04:36:10;;;;;;;5.20;3.70;;;;;;;;;;5054393;28;20399;-72
2021/05/29 04:38:36;;;;;;;6.47;3.77;;;7.70;1.00;;;;;;5054104;28;20152;-72
2021/05/29 04:41:04;;;;;;;8.70;4.20;;;7.70;1.00;;;;;;5052776;28;20425;-71
2021/05/29 04:43:30;;;;;;;7.07;3.87;;;7.70;1.00;;;;;;5054054;28;20168;-72
2021/05/29 04:45:56;;;;;;;5.67;4.00;;;;;;;;;;5051896;28;20410;-72
2021/05/29 04:48:22;;;;;;;5.90;3.93;;;7.80;1.00;;;;;;5053899;28;20393;-72
2021/05/29 04:53:32;;;;;;;7.27;4.20;;;;;;;;;;5033742;28;20179;-72
2021/05/29 04:56:01;;;;;;;6.63;4.47;;;8.10;1.00;;;;;;5034310;28;20411;-72
2021/05/29 04:58:28;;;;;;;8.73;4.20;;;8.10;1.00;;;;;;5033969;28;20467;-71
2021/05/29 05:00:54;;;;;;;5.40;3.93;;;;;;;;;;5033899;28;20470;-71
2021/05/29 05:03:19;;;;;;;6.67;3.87;;;8.30;1.00;;;;;;5033840;28;20419;-72
2021/05/29 05:05:46;;;;;;;6.67;4.00;;;8.30;1.00;;;;;;5038416;28;20484;-71
2021/05/29 05:08:12;;;;;;;6.50;4.40;;;8.40;1.00;;;;;;5053745;28;20152;-72
2021/05/29 05:10:59;;;;;;;6.27;4.27;;;8.50;1.00;;;;;;5052705;28;20532;-75
2021/05/29 05:13:25;;;;;;;7.17;4.03;;;8.60;1.00;;;;;;5050005;28;20194;-77
2021/05/29 05:16:22;;;;;;;5.20;3.77;;;8.70;1.00;;;;;;5053546;28;20382;-77
2021/05/29 05:18:52;;;;;;;6.13;4.20;;;8.80;1.00;;;;;;5053226;28;20391;-77
2021/05/29 05:21:22;;;;;;;6.20;4.13;;;;;;;;;;5053548;28;20962;-76
2021/05/29 05:24:04;;;;;;;6.43;4.10;;;9.00;1.00;;;;;;5053212;28;20770;-76
2021/05/29 05:26:40;;;;;;;11.70;5.53;;;9.20;1.00;;;;;;5033797;28;20419;-77
2021/05/29 05:29:28;;;;;;;4.63;4.10;;;9.30;1.00;;;;;;5052850;28;20417;-76
2021/05/29 05:32:22;;;;;;;6.37;4.33;;;9.40;1.00;;;;;;5053873;28;20908;-73
2021/05/29 05:34:48;;;;;;;4.67;3.83;;;;;;;;;;5048946;28;20402;-73
2021/05/29 05:38:04;;;;;;;4.77;4.03;;;9.70;1.00;;;;;;5045648;28;20407;-84
2021/05/29 05:41:22;;;;;;;5.50;4.20;;;9.80;1.00;;;;;;5032109;28;20449;-82
2021/05/29 05:43:52;;;;;;;6.90;4.30;;;10.00;1.00;;;;;;5032616;28;20472;-82
2021/05/29 05:46:23;;;;;;;9.63;4.20;;;;;;;;;;5048969;28;20909;-82
2021/05/29 05:48:52;;;;;;;4.90;3.80;;;;;;;;;;5053009;28;20410;-83
2021/05/29 05:51:24;;;;;;;7.30;4.20;;;;;;;;;;5053372;28;20999;-83
2021/05/29 05:54:22;;;;;;;5.83;3.73;;;10.60;1.00;;;;;;5053629;28;20765;-83
2021/05/29 05:56:52;;;;;;;4.10;3.27;;;10.90;1.00;;;;;;5053469;28;20399;-73
2021/05/29 05:59:40;;;;;;;7.80;4.00;;;11.10;1.00;;;;;;5037648;28;20722;-73
2021/05/29 06:02:10;;;;;;;6.10;3.67;;;11.20;1.00;;;;;;5033385;28;20438;-75
2021/05/29 06:04:36;;;;;;;6.80;3.60;;;11.30;1.00;;;;;;5035457;28;20438;-74
2021/05/29 06:07:02;;;;;;;6.13;3.30;;;11.50;1.00;;;;;;5064930;28;21144;-73
2021/05/29 06:09:52;;;;;;;6.70;3.00;;;11.70;1.00;;;;;;5036871;28;20199;-74
2021/05/29 06:12:23;;;;;;;5.17;3.00;;;;;;;;;;5068812;28;20782;-75
2021/05/29 06:20:22;;;;;;;2.63;2.40;;;;;;;;;;5035775;28;20437;-73
2021/05/29 06:22:48;;;;;;;5.33;2.33;;;;;;;;;;5035567;28;20400;-71
2021/05/29 06:25:15;;;;;;;9.80;2.57;;;12.60;1.00;;;;;;5035772;28;20391;-71
2021/05/29 06:27:41;;;;;;;2.17;1.97;;;;;;;;;;5035651;28;20399;-71
2021/05/29 06:30:08;;;;;;;2.43;2.23;;;12.80;1.00;;;;;;5035284;28;20453;-71
2021/05/29 06:32:37;;;;;;;2.43;2.10;;;13.00;1.00;;;;;;5035542;28;20871;-71
2021/05/29 06:35:07;;;;;;;2.27;2.07;;;13.20;1.00;;;;;;5035543;28;20395;-71
2021/05/29 06:37:34;;;;;;;1.60;1.50;;;;;;;;;;5035920;28;20428;-74
2021/05/29 06:40:00;;;;;;;3.13;1.60;;;;;;;;;;5035442;28;20403;-74
2021/05/29 06:42:26;;;;;;;3.20;1.93;;;;;;;;;;5035224;28;20403;-74
2021/05/29 06:44:52;;;;;;;4.30;1.87;;;;;;;;;;5035417;28;20408;-74
2021/05/29 06:47:18;;;;;;;2.13;1.93;;;;;;;;;;5035304;28;20396;-74
2021/05/29 06:49:44;;;;;;;1.57;1.33;;;;;;;;;;5035232;28;20504;-74
2021/05/29 06:52:13;;;;;;;1.83;1.73;;;;;;;;;;5035566;28;20387;-71
2021/05/29 06:54:51;;;;;;;1.40;1.30;;;;;;;;;;5035204;28;20394;-71
2021/05/29 07:00:01;;;;;;;3.13;1.50;;;;;;;;;;5035144;28;20365;-71
2021/05/29 07:02:27;;;;;;;4.03;1.77;;;;;;;;;;5035017;28;20392;-71
2021/05/29 07:04:53;;;;;;;1.70;1.60;;;14.70;1.00;;;;;;5034919;28;20522;-71
2021/05/29 07:07:19;;;;;;;1.47;1.37;;;;;;;;;;5053350;28;20905;-71
2021/05/29 07:09:45;;;;;;;1.67;1.50;;;;;;;;;;5046551;28;20197;-72
2021/05/29 07:12:11;;;;;;;1.70;1.40;;;;;;;;;;5034896;28;20441;-72
2021/05/29 07:14:37;;;;;;;2.30;1.53;;;;;;;;;;5034622;28;20374;-71
2021/05/29 07:17:05;;;;;;;2.10;1.67;;;;;;;;;;5049287;28;20426;-72
2021/05/29 07:19:31;;;;;;;2.07;1.30;;;;;;;;;;5050718;28;20438;-72
2021/05/29 07:21:57;;;;;;;2.90;2.00;;;;;;;;;;5035082;28;20902;-71
2021/05/29 07:24:24;;;;;;;2.70;1.20;;;;;;;;;;5034371;28;20402;-72
2021/05/29 07:26:50;;;;;;;11.93;1.70;;;15.70;1.00;;;;;;5034552;28;20390;-72
2021/05/29 07:29:16;;;;;;;4.67;1.40;;;15.70;1.00;;;;;;5034346;28;20398;-72
2021/05/29 07:31:43;;;;;;;1.30;1.23;;;15.90;1.00;;;;;;5034584;28;20922;-72
2021/05/29 07:34:10;;;;;;;1.47;1.23;;;;;;;;;;5034443;28;20445;-72
2021/05/29 07:36:36;;;;;;;3.43;1.10;;;;;;;;;;5034187;28;20370;-71
2021/05/29 07:39:03;;;;;;;6.13;1.30;;;16.20;1.00;;;;;;5043840;28;20379;-72
2021/05/29 07:41:28;;;;;;;3.30;1.53;;;16.20;1.00;;;;;;5038006;28;20481;-72
2021/05/29 07:43:54;;;;;;;1.40;1.30;;;;;;;;;;5034265;28;20382;-72
2021/05/29 07:46:21;;;;;;;1.30;1.10;;;;;;;;;;5034469;28;20278;-71
2021/05/29 07:48:47;;;;;;;8.70;1.27;;;;;;;;;;5034337;28;20470;-72
2021/05/29 07:51:15;;;;;;;3.27;1.67;;;;;;;;;;5050318;28;20432;-71
2021/05/29 07:53:42;;;;;;;1.33;1.07;;;;;;;;;;5074613;28;20431;-71
2021/05/29 07:56:10;;;;;;;3.20;1.67;;;16.60;1.00;;;;;;5070693;28;21667;-71
2021/05/29 07:58:40;;;;;;;3.47;1.33;;;;;;;;;;5037299;28;20393;-71
2021/05/29 08:01:06;;;;;;;1.23;1.13;;;;;;;;;;5033680;28;20427;-72
2021/05/29 08:03:32;;;;;;;1.30;1.20;;;16.90;1.00;;;;;;5033547;28;20472;-72
2021/05/29 08:05:58;;;;;;;1.30;1.10;;;;;;;;;;5033762;28;20462;-73
2021/05/29 08:08:24;;;;;;;6.07;1.30;;;16.90;1.00;;;;;;5048057;28;20226;-72
2021/05/29 08:10:52;;;;;;;1.27;0.97;;;16.70;1.00;;;;;;5033630;28;20846;-72
2021/05/29 08:13:18;;;;;;;11.73;1.63;;;16.80;1.00;;;;;;5031958;28;20418;-73
2021/05/29 08:15:46;;;;;;;1.70;1.40;;;17.20;1.00;;;;;;5033489;28;20402;-73
2021/05/29 08:18:14;;;;;;;2.73;1.00;;;16.90;1.00;;;;;;5032294;28;20388;-73
2021/05/29 08:20:40;;;;;;;3.00;1.07;;;17.00;1.00;;;;;;5033442;28;20503;-73
2021/05/29 08:23:06;;;;;;;2.40;1.27;;;;;;;;;;5033626;28;20803;-75
2021/05/29 08:25:32;;;;;;;1.63;1.27;;;17.20;1.00;;;;;;5035669;28;20196;-76
2021/05/29 08:27:58;;;;;;;8.93;1.93;;;17.20;1.00;;;;;;5047730;28;20426;-76
2021/05/29 08:30:29;;;;;;;1.47;1.30;;;;;;;;;;5033078;28;20458;-76
2021/05/29 08:32:55;;;;;;;1.10;1.10;;;17.50;1.00;;;;;;5033305;28;20397;-76
2021/05/29 08:35:21;;;;;;;1.00;1.00;;;;;;;;;;5033309;28;20434;-75
2021/05/29 08:37:46;;;;;;;1.33;1.20;;;17.60;1.00;;;;;;5033173;28;20370;-75
2021/05/29 08:40:14;;;;;;;1.30;1.10;;;17.70;1.00;;;;;;5034170;28;20423;-75
2021/05/29 08:42:44;;;;;;;3.23;1.30;;;;;;;;;;5031905;28;20530;-75
2021/05/29 08:45:10;;;;;;;5.20;1.23;;;17.90;1.00;;;;;;5033312;28;20467;-76
2021/05/29 08:47:36;;;;;;;4.30;1.10;;;18.00;1.00;;;;;;5033225;28;20401;-75
2021/05/29 08:50:03;;;;;;;1.30;1.00;;;18.00;1.00;;;;;;5033492;28;20519;-75
2021/05/29 08:52:35;;;;;;;2.30;1.03;;;18.00;1.00;;;;;;5046405;28;20181;-75
2021/05/29 08:55:02;;;;;;;5.07;1.20;;;18.10;1.00;;;;;;5033169;28;20424;-72
2021/05/29 08:57:28;;;;;;;2.60;1.40;;;;;;;;;;5032576;28;20424;-75
2021/05/29 08:59:54;;;;;;;1.90;1.00;;;;;;;;;;5035299;28;20886;-75
2021/05/29 09:02:20;;;;;;;2.20;1.10;;;18.20;1.00;;;;;;5051367;28;20419;-75
2021/05/29 09:05:03;;;;;;;5.47;1.40;;;18.40;1.00;;;;;;5033114;28;20458;-73
2021/05/29 09:07:29;;;;;;;3.10;1.20;;;;;;;;;;5032883;28;20174;-75
2021/05/29 09:10:18;;;;;;;3.00;1.20;;;18.60;1.00;;;;;;5033376;28;20453;-72
2021/05/29 09:13:06;;;;;;;1.57;1.10;;;18.70;1.00;;;;;;5052592;28;20754;-73
2021/05/29 09:15:59;;;;;;;1.23;1.03;;;18.80;1.00;;;;;;5043164;28;20467;-73
2021/05/29 09:18:45;;;;;;;1.13;1.03;;;18.90;1.00;;;;;;4994740;28;20434;-73
2021/05/29 09:21:30;;;;;;;1.93;1.27;;;19.00;1.00;;;;;;5001984;28;20751;-75
2021/05/29 09:24:00;;;;;;;1.03;0.97;;;19.00;1.00;;;;;;4991212;28;20426;-73
2021/05/29 09:26:55;;;;;;;1.67;1.20;;;19.30;1.00;;;;;;4991358;28;20414;-73
2021/05/29 09:29:29;;;;;;;1.10;1.00;;;19.30;1.00;;;;;;4930656;29;20417;-73
2021/05/29 09:32:01;;;;;;;1.93;1.20;;;19.40;1.00;;;;;;4933159;29;20772;-73
2021/05/29 09:34:42;;;;;;;4.27;1.23;;;19.50;1.00;;;;;;4933038;29;20441;-73
2021/05/29 09:37:16;;;;;;;5.60;1.10;;;19.50;1.00;;;;;;4933248;29;20418;-73
2021/05/29 09:40:06;;;;;;;8.43;1.30;;;19.50;1.00;;;;;;4935802;29;20442;-73
2021/05/29 09:42:39;;;;;;;1.20;1.00;;;19.70;1.00;;;;;;4929320;29;20430;-73
2021/05/29 09:45:19;;;;;;;1.53;1.30;;;19.80;1.00;;;;;;4936806;29;20443;-73
2021/05/29 09:48:18;;;;;;;0.80;0.80;;;19.70;1.00;;;;;;4936253;29;20449;-73
2021/05/29 09:51:09;;;;;;;2.87;0.93;;;19.70;1.00;;;;;;4920862;29;20472;-74
2021/05/29 09:53:44;;;;;;;1.30;1.20;;;19.70;1.00;;;;;;4936642;29;20781;-74
2021/05/29 09:56:32;;;;;;;3.73;1.13;;;19.60;1.00;;;;;;4988307;28;20446;-72
2021/05/29 09:59:06;;;;;;;3.07;1.13;;;19.70;1.00;;;;;;4994623;28;20494;-71
2021/05/29 10:01:44;;;;;;;1.40;1.10;;;19.60;1.00;;;;;;4993560;28;20443;-69
2021/05/29 10:04:16;;;;;;;1.23;1.13;;;19.70;1.00;;;;;;4978237;28;20427;-70
2021/05/29 10:06:57;;;;;;;1.20;1.10;;;19.90;1.00;;;;;;5049082;28;20591;-69
2021/05/29 10:09:23;;;;;;;1.50;0.90;;;;;;;;;;5054097;28;20432;-69
2021/05/29 10:11:50;;;;;;;1.53;0.90;;;;;;;;;;5054448;28;20471;-69
2021/05/29 10:14:16;;;;;;;2.23;1.07;;;;;;;;;;5055933;28;20394;-69
2021/05/29 10:16:42;;;;;;;2.30;1.20;;;20.00;1.00;;;;;;5055823;28;20400;-69
2021/05/29 10:19:09;;;;;;;2.47;1.27;;;;;;;;;;5055747;28;20433;-70
2021/05/29 10:21:36;;;;;;;6.33;1.77;;;;;;;;;;5055516;28;20455;-69
2021/05/29 10:24:06;;;;;;;1.70;1.10;;;20.10;1.00;;;;;;5052927;28;20432;-75
2021/05/29 10:26:32;;;;;;;3.37;1.03;;;;;;;;;;5054319;28;20433;-77
2021/05/29 10:28:59;;;;;;;1.03;0.90;;;;;;;;;;5055313;28;20433;-78
2021/05/29 10:31:31;;;;;;;1.80;0.90;;;;;;;;;;5055223;28;20818;-77
2021/05/29 10:33:57;;;;;;;2.20;1.10;;;20.30;1.00;;;;;;5054216;28;20491;-76
2021/05/29 10:36:45;;;;;;;0.80;0.80;;;20.50;1.00;;;;;;5036821;28;20390;-76
2021/05/29 10:39:25;;;;;;;0.90;0.90;;;20.60;1.00;;;;;;5055240;28;20220;-76
2021/05/29 10:41:56;;;;;;;1.50;0.77;;;20.70;1.00;;;;;;5055343;28;20482;-75
2021/05/29 10:44:42;;;;;;;2.10;0.90;;;20.70;1.00;;;;;;5055290;28;20394;-73
2021/05/29 10:47:22;;;;;;;1.20;1.10;;;20.60;1.00;;;;;;5038976;28;20419;-72
2021/05/29 10:49:49;;;;;;;1.17;1.07;;;20.60;1.00;;;;;;5033430;28;20465;-73
2021/05/29 10:52:33;;;;;;;0.87;0.87;;;20.70;1.00;;;;;;5053492;28;20894;-73
2021/05/29 10:55:08;;;;;;;0.90;0.80;;;20.90;1.00;;;;;;5055130;28;20762;-73
2021/05/29 10:57:51;;;;;;;2.57;1.27;;;20.90;1.00;;;;;;5055064;28;20397;-71
2021/05/29 11:00:35;;;;;;;7.70;1.50;;;21.10;1.00;;;;;;5043248;28;20423;-71
2021/05/29 11:03:16;;;;;;;1.67;1.10;;;21.20;1.00;;;;;;5037528;28;20417;-71
2021/05/29 11:05:42;;;;;;;2.30;1.13;;;;;;;;;;5054616;28;20439;-71
2021/05/29 11:08:45;;;;;;;1.20;0.93;;;20.90;1.00;;;;;;5054815;28;20396;-71
2021/05/29 11:11:36;;;;;;;3.80;1.30;;;20.80;1.00;;;;;;5053468;28;20468;-71
2021/05/29 11:14:09;;;;;;;2.00;1.13;;;20.90;1.00;;;;;;5054755;28;20423;-73
2021/05/29 11:16:50;;;;;;;1.10;1.07;;;20.80;1.00;;;;;;5054328;28;20406;-73
2021/05/29 11:19:32;;;;;;;1.47;1.00;;;20.90;1.00;;;;;;5040539;28;20420;-71
2021/05/29 11:21:58;;;;;;;0.80;0.80;;;;;;;;;;5037532;28;20429;-73
2021/05/29 11:24:24;;;;;;;3.63;1.10;;;21.20;1.00;;;;;;5034213;28;20384;-73
2021/05/29 11:26:50;;;;;;;1.47;0.83;;;;;;;;;;5046309;28;20963;-73
2021/05/29 11:29:15;;;;;;;2.10;0.70;;;21.30;1.00;;;;;;5054106;28;20195;-74
2021/05/29 11:31:45;;;;;;;2.90;1.23;;;21.40;1.00;;;;;;5048946;28;20786;-77
2021/05/29 11:34:10;;;;;;;2.07;1.20;;;21.50;1.00;;;;;;5034455;28;20166;-71
2021/05/29 11:36:42;;;;;;;1.90;1.00;;;;;;;;;;5034323;28;20400;-71
2021/05/29 11:39:13;;;;;;;1.30;0.90;;;21.50;1.00;;;;;;5034259;28;20186;-72
2021/05/29 11:41:39;;;;;;;8.20;1.60;;;21.50;1.00;;;;;;5034181;28;20439;-74
2021/05/29 11:44:18;;;;;;;3.03;1.17;;;21.70;1.00;;;;;;5044562;28;20512;-75
2021/05/29 11:46:44;;;;;;;5.80;1.20;;;;;;;;;;5054108;28;20374;-75
2021/05/29 11:49:11;;;;;;;4.77;1.23;;;;;;;;;;5044525;28;20432;-77
2021/05/29 11:51:39;;;;;;;1.40;1.00;;;22.00;1.00;;;;;;5051218;28;20503;-77
2021/05/29 11:54:17;;;;;;;7.37;1.57;;;22.20;1.00;;;;;;5048789;28;20916;-77
2021/05/29 11:56:44;;;;;;;1.03;0.93;;;;;;;;;;5036700;28;20457;-70
2021/05/29 11:59:11;;;;;;;1.33;0.80;;;;;;;;;;5033826;28;20411;-70
2021/05/29 12:01:39;;;;;;;1.43;0.80;;;22.10;1.00;;;;;;5042641;28;20523;-70
2021/05/29 12:04:12;;;;;;;10.17;1.57;;;21.80;1.00;;;;;;5053857;28;20752;-70
2021/05/29 12:06:48;;;;;;;4.40;0.90;;;21.80;1.00;;;;;;5053537;28;20436;-77
2021/05/29 12:09:18;;;;;;;1.00;0.90;;;21.80;1.00;;;;;;5053662;28;20890;-70
2021/05/29 12:11:59;;;;;;;4.37;1.10;;;21.90;1.00;;;;;;5045347;28;20772;-77
2021/05/29 12:14:26;;;;;;;2.43;1.03;;;22.00;1.00;;;;;;5033610;28;20410;-70
2021/05/29 12:16:59;;;;;;;2.80;0.90;;;22.00;1.00;;;;;;5044171;28;20931;-70
2021/05/29 12:19:45;;;;;;;5.13;1.00;;;22.00;1.00;;;;;;5053423;28;20479;-70
2021/05/29 12:22:14;;;;;;;2.20;0.80;;;22.00;1.00;;;;;;5041016;28;20441;-70
2021/05/29 12:24:42;;;;;;;1.17;0.70;;;22.10;1.00;;;;;;5033046;28;20396;-76
2021/05/29 12:27:19;;;;;;;1.23;0.73;;;22.20;1.00;;;;;;5033805;28;20494;-70
2021/05/29 12:29:45;;;;;;;0.80;0.80;;;22.10;1.00;;;;;;5032841;28;20471;-77
2021/05/29 12:32:34;;;;;;;1.00;0.83;;;22.10;1.00;;;;;;5033391;28;20404;-78
2021/05/29 12:35:00;;;;;;;3.43;0.90;;;22.30;1.00;;;;;;5033763;28;20787;-69
2021/05/29 12:37:33;;;;;;;2.50;0.80;;;22.30;1.00;;;;;;5042606;28;20416;-76
2021/05/29 12:40:02;;;;;;;3.73;0.90;;;22.30;1.00;;;;;;5053137;28;20473;-76
2021/05/29 12:42:31;;;;;;;8.23;1.10;;;22.40;1.00;;;;;;5053422;28;20400;-77
2021/05/29 12:45:01;;;;;;;8.20;1.20;;;22.40;1.00;;;;;;5049569;28;20457;-77
2021/05/29 12:47:30;;;;;;;0.77;0.77;;;22.40;1.00;;;;;;5053061;28;20911;-70
2021/05/29 12:49:57;;;;;;;13.53;1.07;;;22.40;1.00;;;;;;5052545;28;20490;-70
2021/05/29 12:52:31;;;;;;;1.30;1.00;;;22.50;1.00;;;;;;5034216;28;20446;-70
2021/05/29 12:54:56;;;;;;;1.10;0.87;;;22.60;1.00;;;;;;5032946;28;20394;-76
2021/05/29 12:57:33;;;;;;;0.80;0.70;;;22.50;1.00;;;;;;5052506;28;20433;-78
2021/05/29 13:00:19;;;;;;;1.63;0.83;;;22.60;1.00;;;;;;5032843;28;20177;-70
2021/05/29 13:08:33;;;;;;;2.10;1.20;;;23.10;1.00;;;;;;5052805;28;20433;-70
2021/05/29 13:11:01;;;;;;;1.43;0.90;;;;;;;;;;5052734;28;20446;-77
2021/05/29 13:13:26;;;;;;;0.97;0.77;;;22.60;1.00;;;;;;5033262;28;20415;-70
2021/05/29 13:16:05;;;;;;;1.87;1.00;;;22.40;1.00;;;;;;5032803;28;20406;-70
2021/05/29 13:18:34;;;;;;;3.13;0.93;;;;;;;;;;5032751;28;20283;-70
2021/05/29 13:21:04;;;;;;;0.80;0.80;;;22.70;1.00;;;;;;5034669;28;20410;-70
2021/05/29 13:23:42;;;;;;;0.73;0.73;;;22.70;1.00;;;;;;5052483;28;20406;-77
2021/05/29 13:26:08;;;;;;;4.33;0.93;;;22.80;1.00;;;;;;5052578;28;20392;-74
2021/05/29 13:28:34;;;;;;;0.83;0.83;;;;;;;;;;5052558;28;20482;-72
2021/05/29 13:31:00;;;;;;;0.80;0.80;;;;;;;;;;5052786;28;20677;-73
2021/05/29 13:33:31;;;;;;;0.97;0.70;;;23.10;1.00;;;;;;5037979;28;20437;-74
2021/05/29 13:35:57;;;;;;;1.90;0.77;;;23.10;1.00;;;;;;5032689;28;20406;-73
2021/05/29 13:38:23;;;;;;;0.90;0.80;;;23.30;1.00;;;;;;5032639;28;20762;-73
2021/05/29 13:40:49;;;;;;;0.87;0.70;;;;;;;;;;5048499;28;20503;-73
2021/05/29 13:43:15;;;;;;;5.93;0.60;;;;;;;;;;5043423;28;20187;-73
2021/05/29 13:45:41;;;;;;;1.10;0.70;;;;;;;;;;5032507;28;20508;-73
2021/05/29 13:48:08;;;;;;;0.80;0.80;;;23.20;1.00;;;;;;5031225;28;20764;-73
2021/05/29 13:50:34;;;;;;;1.13;0.67;;;23.10;1.00;;;;;;5051220;28;20866;-73
2021/05/29 13:53:00;;;;;;;1.17;0.67;;;;;;;;;;5045759;28;20516;-73
2021/05/29 13:55:26;;;;;;;2.50;0.67;;;23.10;1.00;;;;;;5032491;28;20759;-74
2021/05/29 13:57:52;;;;;;;0.70;0.50;;;23.00;1.00;;;;;;5036128;28;20414;-72
2021/05/29 14:00:21;;;;;;;0.70;0.70;;;23.10;1.00;;;;;;5049070;28;20694;-72
2021/05/29 14:02:47;;;;;;;0.70;0.70;;;23.10;1.00;;;;;;5051954;28;20399;-72
2021/05/29 14:05:14;;;;;;;1.70;1.00;;;23.10;1.00;;;;;;5051400;28;20459;-71
2021/05/29 14:07:40;;;;;;;0.97;0.90;;;;;;;;;;5044950;28;20215;-74
2021/05/29 14:10:08;;;;;;;0.80;0.70;;;23.30;1.00;;;;;;5047884;28;20477;-74
2021/05/29 14:12:34;;;;;;;1.20;0.70;;;;;;;;;;5032543;28;20428;-74
2021/05/29 14:15:00;;;;;;;0.70;0.70;;;23.60;1.00;;;;;;5032308;28;20392;-74
2021/05/29 14:17:26;;;;;;;1.03;0.80;;;;;;;;;;5032204;28;20420;-74
2021/05/29 14:19:52;;;;;;;12.13;1.43;;;23.70;1.00;;;;;;5040092;28;20180;-74